International Virtual Aviation Organisation

Eastern Europe and Northern Asia MCD

 
UATG 110300Z 13010G15MPS CAVOK 14/M01 Q1023 R14/CLRD70 NOSIG RMK QFE769/1026
QNH:(hPa/inHg/mmHg)1023 / 30.21 / 767
QFE:(hPa/inHg/mmHg)1026 / 30.29 / 769
Temperature14
Dew Point-1
Visibility> 10000
WeatherCAVOK
Cloud Cover
Transition Height1570 m./5100 ft.
Transition LevelFL60
SQUAWK